createdAt,value
2019-06-20T00:00:01.866Z,81.24
2019-06-20T00:01:01.866Z,81.24
2019-06-20T00:02:01.933Z,81.14
2019-06-20T00:03:01.943Z,81.24
2019-06-20T00:04:01.852Z,81.24
2019-06-20T00:05:01.973Z,81.24
2019-06-20T00:06:01.779Z,81.24
2019-06-20T00:07:01.817Z,80.94
2019-06-20T00:08:01.779Z,81.14
2019-06-20T00:09:01.877Z,81.14
2019-06-20T00:10:01.962Z,81.14
2019-06-20T00:11:01.764Z,81.18
2019-06-20T00:12:01.760Z,81.24
2019-06-20T00:13:01.761Z,81.24
2019-06-20T00:14:01.747Z,81.14
2019-06-20T00:15:01.804Z,80.88
2019-06-20T00:16:01.664Z,80.98
2019-06-20T00:17:01.661Z,80.98
2019-06-20T00:18:01.720Z,81.08
2019-06-20T00:19:01.653Z,80.98
2019-06-20T00:20:01.690Z,80.88
2019-06-20T00:21:01.761Z,81.08
2019-06-20T00:22:01.656Z,80.98
2019-06-20T00:23:01.657Z,81.48
2019-06-20T00:24:01.638Z,81.58
2019-06-20T00:25:02.959Z,81.77
2019-06-20T00:26:01.597Z,81.98
2019-06-20T00:27:01.635Z,82.18
2019-06-20T00:28:01.597Z,82.37
2019-06-20T00:29:01.588Z,82.57
2019-06-20T00:30:01.560Z,82.57
2019-06-20T00:31:01.567Z,82.67
2019-06-20T00:32:01.569Z,82.48
2019-06-20T00:33:01.619Z,82.57
2019-06-20T00:34:01.519Z,82.28
2019-06-20T00:35:01.472Z,82.18
2019-06-20T00:36:01.516Z,82.28
2019-06-20T00:37:01.482Z,82.07
2019-06-20T00:38:01.495Z,81.68
2019-06-20T00:39:01.581Z,81.28
2019-06-20T00:40:01.479Z,81.18
2019-06-20T00:41:01.459Z,81.08
2019-06-20T00:42:01.483Z,80.88
2019-06-20T00:43:16.426Z,80.78
2019-06-20T00:44:02.496Z,80.98
2019-06-20T00:45:01.430Z,80.58
2019-06-20T00:46:01.404Z,80.58
2019-06-20T00:47:01.402Z,80.78
2019-06-20T00:48:01.363Z,80.68
2019-06-20T00:49:01.346Z,80.78
2019-06-20T00:50:01.486Z,80.68
2019-06-20T00:51:01.341Z,80.98
2019-06-20T00:52:01.376Z,80.92
2019-06-20T00:53:01.284Z,80.92
2019-06-20T00:54:01.323Z,80.92
2019-06-20T00:55:01.307Z,80.72
2019-06-20T00:56:01.463Z,80.72
2019-06-20T00:57:01.238Z,80.62
2019-06-20T00:58:01.280Z,79.88
2019-06-20T00:59:01.245Z,79.88
2019-06-20T01:00:01.245Z,80.08
2019-06-20T01:01:01.247Z,78.89
2019-06-20T01:02:01.283Z,79.19
2019-06-20T01:03:01.195Z,79.19
2019-06-20T01:04:01.170Z,78.79
2019-06-20T01:05:01.226Z,78.69
2019-06-20T01:06:01.162Z,78.69
2019-06-20T01:07:01.136Z,78.39
2019-06-20T01:08:01.494Z,78.69
2019-06-20T01:09:01.145Z,78.89
2019-06-20T01:10:01.200Z,78.79
2019-06-20T01:11:01.135Z,78.19
2019-06-20T01:12:01.140Z,78.29
2019-06-20T01:13:01.133Z,77.69
2019-06-20T01:14:01.189Z,78.69
2019-06-20T01:15:01.114Z,77.99
2019-06-20T01:16:01.102Z,77.39
2019-06-20T01:17:01.030Z,77.20
2019-06-20T01:18:01.053Z,77.69
2019-06-20T01:19:01.028Z,77.69
2019-06-20T01:20:01.131Z,77.99
2019-06-20T01:21:01.037Z,77.89
2019-06-20T01:22:01.024Z,77.89
2019-06-20T01:23:01.034Z,77.93
2019-06-20T01:24:01.019Z,78.43
2019-06-20T01:25:01.009Z,78.43
2019-06-20T01:26:01.068Z,78.43
2019-06-20T01:27:01.017Z,77.43
2019-06-20T01:28:00.982Z,76.83
2019-06-20T01:29:00.999Z,76.54
2019-06-20T01:30:00.947Z,76.73
2019-06-20T01:31:00.919Z,77.03
2019-06-20T01:32:01.099Z,77.63
2019-06-20T01:33:00.867Z,76.73
2019-06-20T01:34:00.907Z,77.23
2019-06-20T01:35:00.873Z,76.64
2019-06-20T01:36:00.849Z,76.83
2019-06-20T01:37:00.869Z,77.13
2019-06-20T01:38:00.980Z,77.53
2019-06-20T01:39:00.839Z,77.43
2019-06-20T01:40:00.882Z,77.53
2019-06-20T01:41:00.858Z,77.73
2019-06-20T01:42:00.801Z,78.23
2019-06-20T01:43:00.812Z,78.33
2019-06-20T01:44:00.870Z,78.83
2019-06-20T01:45:00.792Z,79.03
2019-06-20T01:46:00.758Z,79.33
2019-06-20T01:47:00.790Z,79.33
2019-06-20T01:48:00.759Z,79.33
2019-06-20T01:49:00.756Z,78.92
2019-06-20T01:50:00.848Z,79.22
2019-06-20T01:51:00.733Z,79.22
2019-06-20T01:52:00.737Z,79.03
2019-06-20T01:53:00.703Z,79.03
2019-06-20T01:54:00.649Z,79.03
2019-06-20T01:55:00.658Z,79.03
2019-06-20T01:56:00.756Z,79.03
2019-06-20T01:57:00.650Z,79.22
2019-06-20T01:58:00.600Z,79.22
2019-06-20T01:59:00.630Z,79.33
2019-06-20T02:00:00.622Z,78.83
2019-06-20T02:01:00.636Z,79.13
2019-06-20T02:02:00.705Z,78.73
2019-06-20T02:03:00.582Z,79.03
2019-06-20T02:04:00.583Z,79.03
2019-06-20T02:05:00.567Z,79.03
2019-06-20T02:06:00.584Z,79.03
2019-06-20T02:07:00.569Z,78.83
2019-06-20T02:08:04.151Z,78.43
2019-06-20T02:09:00.519Z,78.53
2019-06-20T02:10:00.527Z,78.33
2019-06-20T02:11:00.463Z,78.23
2019-06-20T02:12:00.504Z,77.73
2019-06-20T02:13:00.431Z,77.73
2019-06-20T02:14:07.198Z,77.93
2019-06-20T02:15:01.562Z,77.53
2019-06-20T02:16:00.462Z,77.53
2019-06-20T02:17:00.457Z,77.83
2019-06-20T02:18:00.468Z,77.53
2019-06-20T02:19:00.370Z,77.13
2019-06-20T02:20:00.583Z,77.73
2019-06-20T02:21:00.377Z,77.43
2019-06-20T02:22:00.398Z,77.23
2019-06-20T02:23:00.352Z,77.23
2019-06-20T02:24:00.327Z,77.03
2019-06-20T02:25:00.341Z,77.23
2019-06-20T02:26:00.473Z,77.33
2019-06-20T02:27:00.342Z,77.23
2019-06-20T02:28:00.302Z,77.33
2019-06-20T02:29:00.316Z,77.43
2019-06-20T02:30:00.282Z,77.53
2019-06-20T02:31:00.293Z,77.43
2019-06-20T02:32:00.373Z,77.63
2019-06-20T02:33:00.273Z,77.53
2019-06-20T02:34:00.203Z,77.03
2019-06-20T02:35:00.241Z,76.93
2019-06-20T02:36:00.320Z,76.73
2019-06-20T02:37:00.204Z,76.54
2019-06-20T02:38:00.346Z,76.64
2019-06-20T02:39:00.189Z,76.43
2019-06-20T02:40:00.215Z,76.64
2019-06-20T02:41:00.200Z,76.54
2019-06-20T02:42:00.177Z,76.43
2019-06-20T02:43:00.167Z,76.04
2019-06-20T02:44:00.246Z,76.34
2019-06-20T02:45:00.143Z,76.04
2019-06-20T02:46:00.155Z,76.34
2019-06-20T02:47:00.144Z,75.84
2019-06-20T02:48:00.103Z,75.74
2019-06-20T02:49:00.049Z,75.74
2019-06-20T02:50:00.166Z,75.54
2019-06-20T02:51:00.094Z,75.84
2019-06-20T02:52:00.051Z,75.54
2019-06-20T02:53:00.057Z,75.54
2019-06-20T02:54:00.001Z,75.34
2019-06-20T02:55:00.005Z,75.34
2019-06-20T02:56:00.103Z,75.74
2019-06-20T02:57:00.046Z,75.54
2019-06-20T02:57:59.948Z,75.74
2019-06-20T02:58:59.977Z,75.54
2019-06-20T02:59:59.980Z,75.64
2019-06-20T03:00:59.961Z,75.84
2019-06-20T03:02:00.020Z,75.94
2019-06-20T03:02:59.946Z,76.04
2019-06-20T03:03:59.942Z,75.94
2019-06-20T03:04:59.917Z,75.94
2019-06-20T03:05:59.913Z,75.94
2019-06-20T03:06:59.856Z,75.94
2019-06-20T03:07:59.977Z,76.04
2019-06-20T03:08:59.886Z,76.04
2019-06-20T03:09:59.846Z,76.04
2019-06-20T03:10:59.848Z,75.74
2019-06-20T03:11:59.848Z,76.04
2019-06-20T03:12:59.847Z,76.04
2019-06-20T03:13:59.888Z,76.24
2019-06-20T03:14:59.810Z,76.34
2019-06-20T03:15:59.834Z,76.34
2019-06-20T03:16:59.868Z,76.54
2019-06-20T03:17:59.778Z,76.64
2019-06-20T03:18:59.749Z,76.73
2019-06-20T03:19:59.788Z,76.93
2019-06-20T03:20:59.767Z,77.03
2019-06-20T03:21:59.685Z,77.13
2019-06-20T03:22:59.709Z,77.23
2019-06-20T03:23:59.741Z,77.33
2019-06-20T03:24:59.686Z,77.33
2019-06-20T03:25:59.769Z,77.13
2019-06-20T03:26:59.724Z,77.13
2019-06-20T03:27:59.671Z,77.13
2019-06-20T03:28:59.656Z,77.13
2019-06-20T03:29:59.655Z,77.13
2019-06-20T03:30:59.650Z,76.83
2019-06-20T03:31:59.707Z,76.93
2019-06-20T03:32:59.629Z,76.73
2019-06-20T03:33:59.557Z,76.64
2019-06-20T03:34:59.609Z,76.64
2019-06-20T03:35:59.614Z,76.54
2019-06-20T03:36:59.585Z,76.64
2019-06-20T03:37:59.642Z,76.64
2019-06-20T03:38:59.610Z,76.83
2019-06-20T03:39:59.552Z,76.64
2019-06-20T03:40:59.536Z,76.43
2019-06-20T03:41:59.536Z,76.64
2019-06-20T03:42:59.498Z,76.54
2019-06-20T03:43:59.592Z,76.54
2019-06-20T03:45:02.483Z,76.73
2019-06-20T03:45:59.516Z,76.64
2019-06-20T03:46:59.496Z,76.43
2019-06-20T03:47:59.401Z,76.14
2019-06-20T03:48:59.453Z,76.30
2019-06-20T03:49:59.515Z,76.10
2019-06-20T03:50:59.402Z,76.10
2019-06-20T03:51:59.403Z,76.10
2019-06-20T03:52:59.396Z,76.00
2019-06-20T03:53:59.377Z,75.60
2019-06-20T03:54:59.383Z,74.90
2019-06-20T03:55:59.432Z,74.80
2019-06-20T03:56:59.355Z,75.10
2019-06-20T03:57:59.321Z,74.90
2019-06-20T03:58:59.359Z,74.60
2019-06-20T03:59:59.324Z,74.51
2019-06-20T04:00:59.323Z,74.60
2019-06-20T04:01:59.407Z,74.30
2019-06-20T04:02:59.311Z,74.07
2019-06-20T04:03:59.285Z,73.97
2019-06-20T04:04:59.235Z,74.17
2019-06-20T04:05:59.287Z,74.17
2019-06-20T04:06:59.252Z,73.97
2019-06-20T04:07:59.346Z,74.27
2019-06-20T04:08:59.225Z,73.97
2019-06-20T04:09:59.228Z,73.77
2019-06-20T04:10:59.229Z,73.74
2019-06-20T04:11:59.187Z,74.04
2019-06-20T04:12:59.206Z,74.13
2019-06-20T04:13:59.262Z,73.74
2019-06-20T04:14:59.150Z,73.64
2019-06-20T04:15:59.131Z,73.44
2019-06-20T04:16:59.157Z,73.44
2019-06-20T04:17:59.124Z,73.34
2019-06-20T04:18:59.137Z,73.24
2019-06-20T04:19:59.155Z,73.34
2019-06-20T04:20:59.131Z,73.54
2019-06-20T04:21:59.078Z,73.54
2019-06-20T04:22:59.089Z,73.54
2019-06-20T04:23:59.068Z,73.50
2019-06-20T04:24:59.025Z,73.30
2019-06-20T04:25:59.126Z,73.50
2019-06-20T04:26:59.045Z,73.30
2019-06-20T04:27:59.022Z,73.30
2019-06-20T04:28:59.027Z,73.11
2019-06-20T04:29:59.009Z,73.70
2019-06-20T04:30:59.009Z,73.21
2019-06-20T04:31:59.111Z,72.67
2019-06-20T04:32:58.979Z,72.77
2019-06-20T04:33:58.978Z,72.77
2019-06-20T04:34:58.984Z,72.77
2019-06-20T04:35:58.953Z,72.47
2019-06-20T04:36:58.949Z,72.87
2019-06-20T04:37:59.032Z,72.58
2019-06-20T04:38:58.918Z,71.68
2019-06-20T04:39:58.908Z,72.17
2019-06-20T04:40:58.850Z,71.38
2019-06-20T04:41:58.858Z,71.68
2019-06-20T04:42:58.895Z,71.88
2019-06-20T04:43:59.041Z,71.58
2019-06-20T04:44:58.851Z,71.64
2019-06-20T04:45:58.780Z,71.84
2019-06-20T04:46:58.802Z,72.14
2019-06-20T04:47:58.761Z,72.64
2019-06-20T04:48:58.802Z,71.84
2019-06-20T04:49:58.868Z,71.75
2019-06-20T04:50:58.766Z,71.34
2019-06-20T04:51:58.758Z,71.55
2019-06-20T04:52:58.722Z,71.11
2019-06-20T04:53:58.789Z,70.12
2019-06-20T04:54:58.746Z,70.62
2019-06-20T04:55:58.798Z,70.02
2019-06-20T04:56:58.718Z,70.42
2019-06-20T04:57:58.708Z,70.32
2019-06-20T04:58:58.673Z,70.62
2019-06-20T04:59:58.676Z,70.12
2019-06-20T05:00:58.697Z,69.32
2019-06-20T05:01:58.708Z,69.32
2019-06-20T05:02:58.641Z,67.94
2019-06-20T05:03:58.583Z,67.90
2019-06-20T05:04:58.644Z,68.50
2019-06-20T05:05:58.601Z,68.30
2019-06-20T05:06:58.609Z,66.81
2019-06-20T05:07:58.631Z,67.31
2019-06-20T05:08:58.581Z,67.21
2019-06-20T05:09:58.540Z,67.50
2019-06-20T05:10:58.572Z,67.90
2019-06-20T05:11:58.531Z,67.90
2019-06-20T05:12:58.553Z,67.11
2019-06-20T05:13:58.650Z,67.31
2019-06-20T05:14:58.500Z,67.50
2019-06-20T05:15:58.492Z,67.01
2019-06-20T05:16:58.515Z,66.98
2019-06-20T05:17:58.463Z,66.18
2019-06-20T05:18:58.442Z,65.99
2019-06-20T05:19:58.567Z,66.28
2019-06-20T05:20:58.438Z,65.99
2019-06-20T05:21:58.433Z,65.78
2019-06-20T05:22:58.451Z,65.49
2019-06-20T05:23:58.418Z,66.18
2019-06-20T05:24:58.391Z,66.58
2019-06-20T05:25:58.493Z,65.06
2019-06-20T05:26:58.351Z,63.77
2019-06-20T05:27:58.323Z,64.67
2019-06-20T05:28:58.372Z,63.37
2019-06-20T05:29:58.361Z,62.98
2019-06-20T05:30:58.348Z,63.97
2019-06-20T05:31:58.375Z,63.74
2019-06-20T05:32:58.352Z,63.64
2019-06-20T05:33:58.313Z,64.04
2019-06-20T05:34:58.314Z,63.94
2019-06-20T05:35:58.308Z,63.74
2019-06-20T05:36:58.280Z,63.81
2019-06-20T05:37:58.386Z,63.71
2019-06-20T05:38:58.290Z,63.61
2019-06-20T05:39:58.246Z,64.20
2019-06-20T05:40:58.243Z,63.31
2019-06-20T05:41:58.248Z,60.71
2019-06-20T05:42:58.227Z,59.81
2019-06-20T05:43:58.247Z,59.03
2019-06-20T05:44:58.164Z,57.64
2019-06-20T05:46:08.796Z,58.43
2019-06-20T05:47:11.886Z,58.63
2019-06-20T05:47:59.190Z,58.43
2019-06-20T05:48:58.117Z,58.63
2019-06-20T05:49:58.278Z,57.84
2019-06-20T05:50:58.095Z,57.54
2019-06-20T05:51:58.113Z,56.65
2019-06-20T05:52:58.078Z,56.85
2019-06-20T05:53:58.093Z,57.84
2019-06-20T05:54:58.067Z,57.44
2019-06-20T05:55:58.152Z,57.34
2019-06-20T05:56:58.070Z,57.64
2019-06-20T05:57:58.060Z,56.65
2019-06-20T05:58:58.040Z,57.14
2019-06-20T05:59:58.040Z,57.41
2019-06-20T06:00:58.053Z,57.51
2019-06-20T06:01:58.088Z,57.21
2019-06-20T06:02:58.306Z,56.32
2019-06-20T06:03:58.010Z,57.31
2019-06-20T06:04:57.984Z,56.23
2019-06-20T06:05:57.992Z,55.83
2019-06-20T06:06:58.006Z,56.52
2019-06-20T06:07:58.478Z,56.00
2019-06-20T06:08:57.886Z,56.59
2019-06-20T06:09:57.914Z,56.79
2019-06-20T06:10:57.872Z,55.90
2019-06-20T06:11:57.982Z,56.00
2019-06-20T06:12:57.842Z,55.51
2019-06-20T06:13:58.015Z,55.41
2019-06-20T06:15:00.874Z,56.10
2019-06-20T06:15:57.951Z,54.91
2019-06-20T06:16:57.871Z,55.41
2019-06-20T06:17:57.856Z,55.97
2019-06-20T06:18:57.837Z,56.76
2019-06-20T06:19:57.901Z,56.67
2019-06-20T06:20:57.793Z,57.16
2019-06-20T06:21:57.818Z,56.63
2019-06-20T06:22:57.765Z,56.54
2019-06-20T06:23:57.772Z,56.04
2019-06-20T06:24:57.770Z,56.24
2019-06-20T06:25:57.882Z,56.12
2019-06-20T06:26:59.894Z,56.31
2019-06-20T06:27:57.749Z,56.31
2019-06-20T06:28:57.743Z,56.61
2019-06-20T06:29:57.712Z,57.30
2019-06-20T06:30:57.661Z,56.71
2019-06-20T06:31:57.793Z,56.31
2019-06-20T06:32:57.674Z,56.51
2019-06-20T06:33:57.675Z,57.10
2019-06-20T06:34:57.662Z,56.41
2019-06-20T06:35:57.660Z,56.12
2019-06-20T06:36:57.655Z,56.31
2019-06-20T06:37:57.732Z,55.52
2019-06-20T06:38:57.602Z,55.82
2019-06-20T06:39:57.593Z,56.61
2019-06-20T06:40:57.582Z,55.99
2019-06-20T06:41:57.548Z,56.09
2019-06-20T06:42:57.591Z,56.09
2019-06-20T06:43:57.655Z,56.09
2019-06-20T06:44:57.553Z,56.19
2019-06-20T06:45:57.550Z,55.89
2019-06-20T06:46:59.583Z,56.29
2019-06-20T06:47:57.514Z,56.98
2019-06-20T06:48:57.529Z,56.58
2019-06-20T06:49:57.616Z,56.46
2019-06-20T06:50:57.443Z,56.16
2019-06-20T06:51:57.433Z,55.87
2019-06-20T06:52:57.461Z,55.96
2019-06-20T06:53:57.478Z,55.96
2019-06-20T06:54:57.434Z,56.06
2019-06-20T06:55:57.532Z,56.06
2019-06-20T06:56:57.456Z,56.65
2019-06-20T06:57:57.413Z,57.05
2019-06-20T06:58:57.402Z,56.75
2019-06-20T06:59:57.361Z,56.56
2019-06-20T07:00:57.415Z,56.46
2019-06-20T07:01:57.469Z,56.36
2019-06-20T07:02:57.370Z,56.23
2019-06-20T07:03:57.335Z,55.64
2019-06-20T07:04:57.337Z,56.13
2019-06-20T07:05:57.280Z,55.74
2019-06-20T07:06:57.335Z,55.22
2019-06-20T07:07:57.395Z,54.93
2019-06-20T07:08:57.261Z,54.53
2019-06-20T07:09:57.322Z,54.33
2019-06-20T07:10:57.284Z,53.71
2019-06-20T07:11:57.262Z,53.71
2019-06-20T07:12:57.256Z,53.71
2019-06-20T07:13:57.294Z,53.39
2019-06-20T07:14:57.194Z,53.00
2019-06-20T07:15:57.228Z,52.90
2019-06-20T07:17:00.473Z,53.00
2019-06-20T07:17:57.194Z,52.21
2019-06-20T07:18:57.143Z,53.00
2019-06-20T07:19:57.258Z,52.61
2019-06-20T07:20:57.190Z,52.50
2019-06-20T07:21:57.131Z,52.01
2019-06-20T07:22:57.170Z,52.40
2019-06-20T07:23:57.112Z,52.31
2019-06-20T07:24:57.113Z,52.21
2019-06-20T07:25:57.207Z,52.19
2019-06-20T07:26:57.107Z,52.48
2019-06-20T07:27:57.080Z,52.70
2019-06-20T07:28:57.100Z,52.80
2019-06-20T07:29:57.081Z,52.31
2019-06-20T07:30:57.051Z,53.07
2019-06-20T07:31:57.122Z,51.79
2019-06-20T07:32:57.037Z,51.89
2019-06-20T07:33:56.984Z,51.37
2019-06-20T07:34:57.024Z,51.28
2019-06-20T07:35:57.003Z,51.28
2019-06-20T07:36:56.993Z,50.56
2019-06-20T07:37:57.106Z,50.26
2019-06-20T07:38:56.989Z,50.46
2019-06-20T07:39:56.954Z,50.95
2019-06-20T07:40:56.916Z,50.56
2019-06-20T07:41:56.935Z,50.66
2019-06-20T07:42:56.923Z,50.95
2019-06-20T07:43:57.034Z,50.37
2019-06-20T07:44:56.923Z,50.26
2019-06-20T07:46:02.507Z,50.66
2019-06-20T07:46:57.882Z,49.68
2019-06-20T07:47:56.912Z,49.87
2019-06-20T07:48:56.888Z,50.46
2019-06-20T07:49:56.966Z,49.16
2019-06-20T07:50:56.857Z,48.57
2019-06-20T07:51:56.854Z,48.96
2019-06-20T07:53:01.849Z,49.06
2019-06-20T07:53:57.776Z,48.18
2019-06-20T07:54:56.805Z,48.65
2019-06-20T07:55:56.945Z,49.23
2019-06-20T07:56:56.780Z,48.74
2019-06-20T07:57:56.788Z,47.54
2019-06-20T07:58:56.795Z,48.43
2019-06-20T07:59:56.818Z,48.23
2019-06-20T08:00:56.766Z,47.22
2019-06-20T08:01:56.846Z,47.13
2019-06-20T08:02:56.730Z,47.61
2019-06-20T08:03:56.697Z,47.03
2019-06-20T08:04:56.699Z,46.51
2019-06-20T08:05:56.922Z,46.41
2019-06-20T08:06:56.705Z,46.53
2019-06-20T08:07:56.784Z,46.61
2019-06-20T08:08:56.682Z,46.91
2019-06-20T08:09:56.615Z,47.10
2019-06-20T08:10:56.629Z,47.10
2019-06-20T08:11:56.668Z,46.10
2019-06-20T08:12:56.617Z,45.41
2019-06-20T08:13:56.763Z,44.90
2019-06-20T08:14:56.594Z,45.00
2019-06-20T08:15:56.579Z,44.41
2019-06-20T08:16:56.610Z,44.51
2019-06-20T08:17:56.558Z,44.88
2019-06-20T08:18:56.584Z,43.80
2019-06-20T08:19:56.710Z,44.98
2019-06-20T08:20:56.551Z,44.38
2019-06-20T08:21:56.494Z,44.58
2019-06-20T08:22:56.554Z,43.90
2019-06-20T08:23:56.503Z,43.88
2019-06-20T08:24:56.768Z,43.27
2019-06-20T08:25:57.555Z,43.56
2019-06-20T08:26:57.549Z,42.58
2019-06-20T08:27:57.851Z,43.46
2019-06-20T08:29:10.253Z,42.88
2019-06-20T08:29:57.881Z,42.97
2019-06-20T08:30:57.735Z,44.27
2019-06-20T08:31:57.931Z,44.93
2019-06-20T08:32:59.116Z,43.27
2019-06-20T08:33:57.696Z,43.37
2019-06-20T08:34:56.611Z,43.17
2019-06-20T08:35:57.548Z,43.63
2019-06-20T08:36:57.808Z,43.81
2019-06-20T08:37:57.835Z,42.54
2019-06-20T08:38:57.428Z,42.05
2019-06-20T08:39:57.337Z,42.05
2019-06-20T08:40:57.020Z,41.58
2019-06-20T08:41:57.170Z,42.85
2019-06-20T08:42:57.121Z,43.24
2019-06-20T08:43:57.090Z,43.73
2019-06-20T08:44:57.600Z,43.34
2019-06-20T08:45:57.567Z,43.46
2019-06-20T08:46:58.365Z,42.95
2019-06-20T08:47:56.999Z,42.78
2019-06-20T08:48:56.637Z,42.88
2019-06-20T08:49:56.785Z,42.85
2019-06-20T08:50:58.215Z,42.66
2019-06-20T08:51:57.329Z,42.44
2019-06-20T08:52:57.631Z,40.76
2019-06-20T08:53:57.440Z,40.94
2019-06-20T08:54:56.653Z,39.76
2019-06-20T08:55:57.759Z,39.84
2019-06-20T08:56:57.356Z,39.14
2019-06-20T08:57:57.573Z,38.84
2019-06-20T08:58:57.355Z,38.34
2019-06-20T08:59:57.303Z,39.31
2019-06-20T09:00:58.014Z,38.92
2019-06-20T09:01:58.110Z,38.63
2019-06-20T09:02:56.929Z,39.10
2019-06-20T09:03:56.996Z,38.20
2019-06-20T09:04:56.513Z,38.40
2019-06-20T09:05:57.126Z,38.20
2019-06-20T09:06:57.513Z,37.12
2019-06-20T09:07:57.198Z,36.92
2019-06-20T09:08:57.050Z,36.41
2019-06-20T09:09:56.041Z,36.02
2019-06-20T09:10:57.371Z,37.46
2019-06-20T09:11:56.542Z,37.54
2019-06-20T09:12:57.040Z,35.50
2019-06-20T09:13:57.143Z,34.22
2019-06-20T09:14:56.902Z,34.32
2019-06-20T09:15:56.775Z,34.01
2019-06-20T09:16:56.488Z,33.62
2019-06-20T09:17:56.816Z,33.99
2019-06-20T09:18:56.736Z,32.24
2019-06-20T09:19:56.036Z,32.54
2019-06-20T09:20:56.029Z,33.33
2019-06-20T09:21:55.953Z,34.48
2019-06-20T09:22:56.759Z,34.20
2019-06-20T09:23:55.911Z,34.69
2019-06-20T09:24:56.809Z,34.69
2019-06-20T09:25:56.051Z,32.75
2019-06-20T09:26:57.023Z,33.53
2019-06-20T09:27:56.010Z,33.25
2019-06-20T09:28:57.104Z,32.96
2019-06-20T09:29:56.263Z,33.44
2019-06-20T09:30:57.010Z,32.75
2019-06-20T09:31:55.921Z,31.21
2019-06-20T09:32:55.792Z,31.00
2019-06-20T09:33:55.863Z,31.88
2019-06-20T09:34:56.562Z,30.14
2019-06-20T09:35:55.791Z,29.75
2019-06-20T09:36:55.780Z,31.21
2019-06-20T09:37:57.036Z,30.04
2019-06-20T09:38:57.758Z,29.18
2019-06-20T09:39:57.149Z,29.38
2019-06-20T09:40:56.821Z,30.07
2019-06-20T09:41:56.564Z,30.04
2019-06-20T09:42:56.456Z,30.62
2019-06-20T09:43:56.435Z,29.85
2019-06-20T09:44:56.399Z,30.33
2019-06-20T09:45:56.115Z,30.90
2019-06-20T09:46:56.366Z,30.62
2019-06-20T09:47:56.023Z,30.22
2019-06-20T09:48:55.647Z,30.32
2019-06-20T09:49:57.679Z,29.25
2019-06-20T09:50:56.928Z,29.54
2019-06-20T09:51:56.634Z,30.41
2019-06-20T09:52:56.589Z,29.94
2019-06-20T09:53:56.345Z,31.30
2019-06-20T09:54:56.120Z,31.51
2019-06-20T09:55:55.740Z,31.81
2019-06-20T09:56:56.947Z,32.37
2019-06-20T09:57:55.948Z,32.08
2019-06-20T09:58:55.567Z,32.35
2019-06-20T10:00:05.864Z,32.34
2019-06-20T10:00:57.448Z,32.92
2019-06-20T10:01:56.597Z,29.51
2019-06-20T10:02:56.314Z,29.69
2019-06-20T10:03:56.721Z,29.87
2019-06-20T10:04:56.699Z,30.34
2019-06-20T10:05:56.699Z,30.13
2019-06-20T10:06:56.639Z,29.17
2019-06-20T10:07:56.640Z,30.24
2019-06-20T10:08:56.520Z,29.16
2019-06-20T10:09:56.335Z,28.02
2019-06-20T10:10:56.252Z,28.12
2019-06-20T10:11:56.128Z,29.48
2019-06-20T10:12:55.872Z,30.35
2019-06-20T10:13:56.054Z,29.60
2019-06-20T10:14:56.161Z,30.29
2019-06-20T10:15:55.706Z,31.84
2019-06-20T10:16:56.792Z,31.94
2019-06-20T10:17:55.350Z,31.95
2019-06-20T10:18:56.480Z,32.13
2019-06-20T10:19:56.334Z,32.23
2019-06-20T10:20:55.305Z,32.71
2019-06-20T10:21:56.039Z,31.92
2019-06-20T10:22:55.283Z,32.62
2019-06-20T10:23:56.026Z,31.94
2019-06-20T10:24:55.377Z,32.13
2019-06-20T10:25:55.291Z,31.82
2019-06-20T10:26:55.279Z,31.94
2019-06-20T10:27:55.258Z,32.41
2019-06-20T10:28:55.253Z,32.60
2019-06-20T10:29:55.271Z,32.79
2019-06-20T10:30:55.372Z,31.53
2019-06-20T10:31:55.242Z,32.91
2019-06-20T10:32:55.201Z,33.11
2019-06-20T10:33:55.213Z,32.64
2019-06-20T10:34:55.196Z,33.31
2019-06-20T10:35:55.242Z,33.02
2019-06-20T10:36:56.968Z,33.72
2019-06-20T10:37:56.960Z,32.55
2019-06-20T10:38:56.843Z,32.55
2019-06-20T10:39:56.782Z,33.53
2019-06-20T10:40:58.633Z,33.81
2019-06-20T10:41:55.361Z,33.54
2019-06-20T10:42:56.475Z,33.54
2019-06-20T10:43:56.343Z,33.85
2019-06-20T10:44:56.197Z,34.33
2019-06-20T10:45:55.085Z,34.24
2019-06-20T10:46:55.073Z,33.26
2019-06-20T10:47:55.065Z,33.65
2019-06-20T10:48:55.133Z,34.25
2019-06-20T10:49:55.048Z,34.08
2019-06-20T10:50:55.041Z,35.85
2019-06-20T10:51:54.988Z,36.43
2019-06-20T10:52:55.003Z,36.53
2019-06-20T10:53:54.992Z,36.80
2019-06-20T10:54:55.080Z,35.73
2019-06-20T10:55:54.993Z,35.94
2019-06-20T10:56:54.983Z,36.33
2019-06-20T10:57:54.917Z,36.35
2019-06-20T10:58:54.968Z,36.65
2019-06-20T10:59:54.955Z,36.14
2019-06-20T11:00:54.979Z,37.12
2019-06-20T11:01:54.926Z,36.14
2019-06-20T11:02:54.890Z,36.65
2019-06-20T11:03:54.910Z,36.35
2019-06-20T11:04:54.879Z,36.06
2019-06-20T11:05:54.881Z,37.13
2019-06-20T11:06:54.971Z,37.04
2019-06-20T11:07:54.885Z,36.94
2019-06-20T11:08:54.838Z,36.27
2019-06-20T11:09:54.835Z,36.68
2019-06-20T11:10:54.824Z,36.90
2019-06-20T11:11:54.827Z,37.30
2019-06-20T11:12:56.312Z,37.41
2019-06-20T11:13:54.840Z,38.04
2019-06-20T11:14:54.785Z,39.12
2019-06-20T11:15:54.738Z,39.51
2019-06-20T11:16:54.780Z,39.00
2019-06-20T11:17:56.651Z,38.69
2019-06-20T11:18:55.138Z,37.30
2019-06-20T11:19:54.753Z,38.09
2019-06-20T11:20:54.741Z,38.18
2019-06-20T11:21:54.731Z,38.18
2019-06-20T11:22:54.743Z,38.10
2019-06-20T11:23:54.725Z,38.02
2019-06-20T11:24:54.772Z,38.79
2019-06-20T11:25:54.639Z,38.79
2019-06-20T11:26:54.622Z,38.87
2019-06-20T11:27:54.661Z,39.28
2019-06-20T11:28:55.836Z,39.08
2019-06-20T11:29:54.673Z,39.28
2019-06-20T11:31:00.108Z,39.86
2019-06-20T11:31:55.601Z,39.16
2019-06-20T11:32:54.650Z,38.65
2019-06-20T11:33:54.649Z,38.53
2019-06-20T11:34:54.570Z,38.16
2019-06-20T11:35:54.559Z,39.14
2019-06-20T11:36:54.649Z,39.23
2019-06-20T11:37:54.564Z,39.33
2019-06-20T11:38:54.541Z,37.67
2019-06-20T11:39:54.593Z,38.55
2019-06-20T11:40:54.533Z,38.65
2019-06-20T11:41:54.523Z,38.35
2019-06-20T11:42:54.646Z,38.84
2019-06-20T11:43:54.503Z,38.35
2019-06-20T11:44:54.492Z,37.57
2019-06-20T11:45:54.490Z,38.26
2019-06-20T11:46:54.457Z,39.14
2019-06-20T11:47:54.455Z,38.75
2019-06-20T11:48:54.536Z,38.65
2019-06-20T11:49:54.459Z,38.87
2019-06-20T11:50:54.448Z,39.65
2019-06-20T11:51:54.404Z,39.94
2019-06-20T11:52:54.418Z,39.16
2019-06-20T11:53:54.422Z,38.67
2019-06-20T11:54:54.459Z,38.38
2019-06-20T11:55:54.359Z,38.65
2019-06-20T11:56:54.382Z,38.84
2019-06-20T11:57:54.345Z,38.94
2019-06-20T11:58:54.326Z,39.26
2019-06-20T11:59:54.341Z,39.65
2019-06-20T12:01:03.551Z,39.23
2019-06-20T12:01:55.319Z,39.36
2019-06-20T12:02:54.602Z,39.26
2019-06-20T12:03:54.297Z,39.84
2019-06-20T12:04:54.278Z,39.76
2019-06-20T12:05:54.277Z,39.67
2019-06-20T12:06:54.349Z,40.37
2019-06-20T12:07:54.258Z,40.95
2019-06-20T12:08:54.255Z,40.64
2019-06-20T12:09:54.244Z,40.47
2019-06-20T12:10:54.211Z,40.66
2019-06-20T12:11:54.198Z,40.58
2019-06-20T12:12:54.359Z,41.27
2019-06-20T12:13:54.197Z,41.39
2019-06-20T12:14:54.203Z,41.68
2019-06-20T12:15:54.175Z,41.58
2019-06-20T12:16:54.164Z,42.07
2019-06-20T12:17:54.098Z,42.36
2019-06-20T12:18:54.228Z,42.66
2019-06-20T12:19:54.140Z,41.86
2019-06-20T12:20:54.131Z,42.17
2019-06-20T12:21:54.134Z,41.58
2019-06-20T12:22:54.056Z,42.07
2019-06-20T12:23:54.105Z,42.27
2019-06-20T12:24:54.176Z,42.36
2019-06-20T12:25:54.093Z,41.49
2019-06-20T12:26:54.074Z,41.78
2019-06-20T12:27:54.057Z,41.49
2019-06-20T12:28:53.991Z,41.19
2019-06-20T12:29:54.014Z,41.19
2019-06-20T12:30:54.080Z,41.11
2019-06-20T12:31:54.011Z,41.60
2019-06-20T12:32:53.952Z,41.70
2019-06-20T12:33:53.991Z,41.41
2019-06-20T12:34:53.940Z,41.21
2019-06-20T12:35:53.988Z,41.72
2019-06-20T12:36:54.062Z,41.70
2019-06-20T12:37:53.915Z,42.19
2019-06-20T12:38:53.942Z,42.09
2019-06-20T12:39:53.962Z,42.29
2019-06-20T12:40:53.900Z,42.11
2019-06-20T12:41:53.914Z,42.21
2019-06-20T12:42:53.972Z,42.41
2019-06-20T12:43:53.836Z,43.12
2019-06-20T12:44:53.862Z,42.91
2019-06-20T12:45:53.852Z,43.21
2019-06-20T12:46:53.866Z,43.43
2019-06-20T12:47:53.786Z,43.72
2019-06-20T12:48:53.927Z,43.02
2019-06-20T12:49:53.775Z,43.12
2019-06-20T12:50:53.801Z,42.72
2019-06-20T12:51:53.782Z,42.41